M I D A S
Marine Information and Data Acquisition System
Tripno 712 of the Zeeleeuw from 2004-05-05 06:36:16 to 2004-05-05 12:16:44
Back to CruiseResearch ActivitiesStationsMapUnderway DataData graphs

EquipmentUnitsComment
TimeDGPSUTC
LatitudeDGPSDM.mWGS84
LongitudeDGPSDM.mWGS84
HeadingGyrodeg 
SOGDGPSknotsSpeed over ground
COGDGPSdegCourse over ground
DepthEcho soundermeters200 kHz
Missing or incorrect values are displayed as -999
Navigation data collected by the RV Zeeleeuw from 2004-05-05 06:36:16 to 2004-05-05 12:16:44
Time Latitude Longitude Heading SOG COG Depth
2004-05-05 06:37:18 51°13.632 2°55.965 118.1 4.8 294 -999
2004-05-05 06:38:18 51°13.663 2°55.835 106.6 5.3 286 -999
2004-05-05 06:39:18 51°13.67 2°55.755 63.8 1.3 40 9
2004-05-05 06:40:18 51°13.675 2°55.76 24.6 1.1 215 -999
2004-05-05 06:41:18 51°13.725 2°55.724 338 5.3 334 8.9
2004-05-05 06:42:18 51°13.846 2°55.649 346.9 8.8 344 7.6
2004-05-05 06:43:18 51°13.988 2°55.609 355.6 8 347 8.1
2004-05-05 06:44:18 51°14.082 2°55.486 319.7 7.7 316 9
2004-05-05 06:45:18 51°14.215 2°55.338 330.9 10.9 324 9.4
2004-05-05 06:46:18 51°14.343 2°55.111 315.1 12.1 310 9.1
2004-05-05 06:47:18 51°14.456 2°54.816 297.6 13.8 287 8.9
2004-05-05 06:48:18 51°14.481 2°54.477 270 10.3 261 9
2004-05-05 06:49:18 51°14.47 2°54.286 279.1 5.9 270 8.9
2004-05-05 06:50:18 51°14.48 2°54.156 294.1 4.4 280 8.4
2004-05-05 06:51:18 51°14.491 2°54.053 293.6 3.5 278 8.5
2004-05-05 06:52:18 51°14.499 2°53.97 294.6 2.9 279 8.5
2004-05-05 06:53:18 51°14.505 2°53.9 297.2 2.8 283 8.6
2004-05-05 06:54:18 51°14.568 2°53.812 346.9 7.8 332 8.5
2004-05-05 06:55:18 51°14.742 2°53.689 346.3 12.8 336 8.6
2004-05-05 06:56:18 51°14.937 2°53.541 343.1 12.9 334 8
2004-05-05 06:57:17 51°15.138 2°53.453 357.8 12.8 347 8
2004-05-05 06:58:17 51°15.34 2°53.324 350 13.3 341 8.6
2004-05-05 06:59:18 51°15.552 2°53.198 348.8 13.4 338 9.4
2004-05-05 07:00:18 51°15.76 2°53.071 348.8 13.4 338 9.9
2004-05-05 07:01:18 51°15.966 2°52.934 348.7 13.4 337 10.5
2004-05-05 07:02:17 51°16.169 2°52.8 348.9 13.4 337 10.9
2004-05-05 07:03:18 51°16.38 2°52.675 351.2 13.3 339 10.8
2004-05-05 07:04:18 51°16.588 2°52.564 351.7 13.2 342 9.7
2004-05-05 07:05:18 51°16.79 2°52.459 350.7 12.5 342 8.3
2004-05-05 07:06:18 51°16.991 2°52.359 353.5 12.5 345 7.9
2004-05-05 07:07:18 51°17.192 2°52.249 350.1 12.9 341 8.6
2004-05-05 07:08:18 51°17.392 2°52.127 343.3 13 331 8.9
2004-05-05 07:09:18 51°17.575 2°51.942 339.4 13 329 9
2004-05-05 07:10:16 51°17.752 2°51.767 338.9 13 329 8.6
2004-05-05 07:11:18 51°17.944 2°51.577 339.4 13.3 329 9
2004-05-05 07:12:17 51°18.132 2°51.394 339 13.6 328 10.2
2004-05-05 07:13:17 51°18.325 2°51.203 338.5 13.6 327 11.5
2004-05-05 07:14:18 51°18.52 2°51.008 339.5 13.6 328 12.4
2004-05-05 07:15:18 51°18.711 2°50.816 340.7 13.5 328 13.1
2004-05-05 07:16:17 51°18.897 2°50.621 340 13.5 329 13.1
2004-05-05 07:17:18 51°19.092 2°50.423 339.3 13.5 327 12.1
2004-05-05 07:18:18 51°19.283 2°50.233 339.7 13.5 328 10.5
2004-05-05 07:19:18 51°19.453 2°49.991 325.9 13.9 316 11.1
2004-05-05 07:20:18 51°19.608 2°49.708 316.9 14.2 306 12.8
2004-05-05 07:21:16 51°19.714 2°49.386 298.3 14.4 288 15.4
2004-05-05 07:22:18 51°19.77 2°48.997 286.5 14.8 278 17.6
2004-05-05 07:23:16 51°19.807 2°48.625 288.2 14.7 279 19.7
2004-05-05 07:24:18 51°19.85 2°48.224 288.2 14.9 280 21
2004-05-05 07:25:17 51°19.893 2°47.841 288.7 14.9 280 21
2004-05-05 07:26:18 51°19.94 2°47.444 289.7 15 281 20.1
2004-05-05 07:27:18 51°19.986 2°47.05 289.6 15.2 280 18.7
2004-05-05 07:28:18 51°20.035 2°46.658 290.1 15 281 15.4
2004-05-05 07:29:17 51°20.092 2°46.28 298.5 14.8 290 10.6
2004-05-05 07:30:18 51°20.176 2°45.903 297.1 14.9 288 14
2004-05-05 07:31:18 51°20.25 2°45.518 296.1 15.3 284 20.3
2004-05-05 07:32:18 51°20.306 2°45.121 290.9 15.2 282 22.2
2004-05-05 07:33:18 51°20.363 2°44.729 290.5 15.2 283 24.5
2004-05-05 07:34:18 51°20.42 2°44.339 291.1 14.8 283 25.9
2004-05-05 07:35:18 51°20.472 2°43.953 291.1 14.8 283 26.5
2004-05-05 07:36:18 51°20.525 2°43.57 292.3 14.8 283 25.8
2004-05-05 07:37:17 51°20.578 2°43.189 293.1 14.9 283 23.3
2004-05-05 07:38:18 51°20.632 2°42.795 292.4 15 283 17.9
2004-05-05 07:39:18 51°20.687 2°42.411 293.5 14.8 283 17.5
2004-05-05 07:40:18 51°20.689 2°42.156 255.6 7.3 248 18.9
2004-05-05 07:41:18 51°20.622 2°42.062 183.6 4.3 194 18.3
2004-05-05 07:42:18 51°20.587 2°42.098 93.7 2.3 92 18.1
2004-05-05 07:43:18 51°20.613 2°42.19 73.1 4.7 67 17.4
2004-05-05 07:44:18 51°20.651 2°42.315 70 5.4 62 17.9
2004-05-05 07:45:18 51°20.662 2°42.404 104.6 2.5 118 17.9
2004-05-05 07:46:17 51°20.619 2°42.437 158.1 3.9 176 18
2004-05-05 07:47:18 51°20.556 2°42.361 245.5 5.6 248 19.2
2004-05-05 07:48:18 51°20.574 2°42.23 329.1 4.3 307 17.9
2004-05-05 07:49:18 51°20.619 2°42.19 29.7 2.2 356 17.8
2004-05-05 07:50:17 51°20.639 2°42.211 74 1.5 62 18.4
2004-05-05 07:51:18 51°20.646 2°42.252 80.2 1.7 77 17.7
2004-05-05 07:52:18 51°20.658 2°42.297 76.4 1.9 64 17.3
2004-05-05 07:53:18 51°20.673 2°42.34 70 1.9 56 18.1
2004-05-05 07:54:18 51°20.685 2°42.387 85.8 1.9 94 17.3
2004-05-05 07:55:18 51°20.676 2°42.434 100.1 1.8 108 18.7
2004-05-05 07:56:18 51°20.659 2°42.48 120.9 2.8 140 20.5
2004-05-05 07:57:18 51°20.597 2°42.484 187.5 4.7 204 19.9
2004-05-05 07:58:18 51°20.562 2°42.369 281.2 5.2 275 18.7
2004-05-05 07:59:18 51°20.605 2°42.231 321.6 6.6 303 17.8
2004-05-05 08:00:22 51°20.673 2°42.069 314.6 7.2 299 18
2004-05-05 08:01:21 51°20.742 2°41.867 314.1 11.5 300 17.8
2004-05-05 08:02:20 51°20.855 2°41.564 312 14.1 303 23.6
2004-05-05 08:03:21 51°21.015 2°41.293 333.3 13.5 324 25.2
2004-05-05 08:04:27 51°21.227 2°41.091 349.3 13 333 25.4
2004-05-05 08:05:26 51°21.426 2°40.988 358 12.7 344 24.3
2004-05-05 08:06:25 51°21.63 2°40.876 352.2 13.5 339 26
2004-05-05 08:07:27 51°21.849 2°40.762 350.3 13.1 340 26.5
2004-05-05 08:08:27 51°22.057 2°40.665 0.4 13 348 26.1
2004-05-05 08:09:26 51°22.261 2°40.587 0.5 12.5 348 28.1
2004-05-05 08:10:33 51°22.494 2°40.537 6.9 13.1 359 28.8
2004-05-05 08:11:32 51°22.706 2°40.528 7.9 12.5   28.3
2004-05-05 08:12:32 51°22.915 2°40.505 8.5 12.7 358 28.5
2004-05-05 08:13:32 51°23.126 2°40.505 9.1 12.5 2 28.8
2004-05-05 08:14:33 51°23.343 2°40.486 7.4 12.5   29
2004-05-05 08:15:33 51°23.556 2°40.464 7.8 13.1 355 28.3
2004-05-05 08:16:33 51°23.769 2°40.435 7.3 12.5 359 27.8
2004-05-05 08:17:33 51°23.978 2°40.431 11.7 12.3 1 27
2004-05-05 08:18:33 51°24.183 2°40.462 14.9 12.3 5 24.3
2004-05-05 08:19:32 51°24.387 2°40.489 15.9 12.9 7 25.1
2004-05-05 08:20:33 51°24.601 2°40.507 13.1 12.7 359 26.3
2004-05-05 08:21:32 51°24.803 2°40.523 12 11.9 4 25.8
2004-05-05 08:22:32 51°25.007 2°40.542 10.1 12.5 1 26.7
2004-05-05 08:23:33 51°25.217 2°40.546 13.1 12.8 357 26.9
2004-05-05 08:24:32 51°25.42 2°40.558 11.5 12.8 5 27.4
2004-05-05 08:25:33 51°25.623 2°40.636 24.1 12.6 21 26
2004-05-05 08:26:32 51°25.812 2°40.745 28.4 11.7 28 28.1
2004-05-05 08:27:33 51°25.998 2°40.881 31.5 12.1 25 28.4
2004-05-05 08:28:32 51°26.175 2°41.011 37.1 12.6 28 29.4
2004-05-05 08:29:33 51°26.343 2°41.189 45.4 11.8 41 29.5
2004-05-05 08:30:32 51°26.489 2°41.396 49.5 11.8 47 28.8
2004-05-05 08:31:32 51°26.607 2°41.648 59.6 12.1 63 29.1
2004-05-05 08:32:33 51°26.709 2°41.925 62.4 11.9 58 29.8
2004-05-05 08:33:32 51°26.812 2°42.182 59.3 11.7 57 30.2
2004-05-05 08:34:33 51°26.922 2°42.45 59.8 11.7 60 30.9
2004-05-05 08:35:33 51°27.029 2°42.714 63.6 11.8 57 31.3
2004-05-05 08:36:33 51°27.116 2°43.002 67 11.8 67 30.1
2004-05-05 08:37:37 51°27.213 2°43.315 67.5 12.4 65 29
2004-05-05 08:38:37 51°27.3 2°43.606 67 11.9 59 28.6
2004-05-05 08:39:42 51°27.349 2°43.949 82.3 12.7 81 27.3
2004-05-05 08:40:42 51°27.329 2°44.275 99.2 12.5 99 24.6
2004-05-05 08:41:42 51°27.226 2°44.566 128.9 12.7 135 25.5
2004-05-05 08:42:41 51°27.044 2°44.747 150.6 13.4 152 27
2004-05-05 08:43:42 51°26.838 2°44.905 148.4 13.6 156 26.9
2004-05-05 08:44:42 51°26.642 2°45.074 147.3 13.5 151 27.8
2004-05-05 08:45:42 51°26.447 2°45.249 144.8 13.5 154 28.3
2004-05-05 08:46:41 51°26.257 2°45.426 146 13.5 151 26.6
2004-05-05 08:47:48 51°26.046 2°45.634 145.5 13.2 144 26.7
2004-05-05 08:48:52 51°25.952 2°45.945 96.3 13.1 97 23.9
2004-05-05 08:49:52 51°25.986 2°46.256 69.1 12 60 25.3
2004-05-05 08:50:52 51°26.085 2°46.538 62.4 12 52 23.2
2004-05-05 08:51:52 51°26.183 2°46.82 65.7 12.6 62 21.3
2004-05-05 08:52:52 51°26.278 2°47.103 67.2 11.9 62 24
2004-05-05 08:53:52 51°26.378 2°47.384 65.4 12.5 61 21.2
2004-05-05 08:54:52 51°26.474 2°47.659 65.3 12.3 61 21.4
2004-05-05 08:55:52 51°26.569 2°47.939 66.3 12.2 63 22.8
2004-05-05 08:56:52 51°26.663 2°48.218 67.3 11.6 64 21.8
2004-05-05 08:57:52 51°26.769 2°48.486 54 12.1 45 22.6
2004-05-05 08:58:52 51°26.924 2°48.687 44.6 12.3 33 23.1
2004-05-05 08:59:52 51°27.084 2°48.876 41.3 11.3 42 24.1
2004-05-05 09:00:52 51°27.27 2°48.998 29.7 12.5 17 24.4
2004-05-05 09:01:52 51°27.475 2°49.035 15 12.6 2 25.9
2004-05-05 09:02:52 51°27.683 2°49.065 15.1 12.7 4 25.6
2004-05-05 09:03:52 51°27.889 2°49.103 17.6 12.6 4 25.3
2004-05-05 09:04:52 51°28.092 2°49.147 11.9 12.4 2 28.1
2004-05-05 09:05:52 51°28.303 2°49.093 357.7 12.7 357 26.1
2004-05-05 09:06:52 51°28.513 2°49.034 2.9 12.9 354 32.8
2004-05-05 09:07:52 51°28.729 2°48.999 1.5 13.1 346 28.9
2004-05-05 09:08:50 51°28.93 2°48.987 18.6 12.1 14 27.4
2004-05-05 09:09:50 51°29.131 2°49.051 15.8 12.6 8 27.5
2004-05-05 09:10:52 51°29.333 2°49.152 23.6 12.2 21 24.9
2004-05-05 09:11:52 51°29.535 2°49.247 28.1 12.9 21 25.1
2004-05-05 09:12:52 51°29.734 2°49.351 25.4 12.7 16 24.7
2004-05-05 09:13:52 51°29.929 2°49.472 28.3 12.9 20 23.6
2004-05-05 09:14:52 51°30.104 2°49.625 38.3 12.2 36 20.2
2004-05-05 09:15:52 51°30.223 2°49.88 62.6 12.6 64 21.4
2004-05-05 09:16:52 51°30.304 2°50.171 73.4 12 70 23
2004-05-05 09:17:52 51°30.366 2°50.489 73 12.7 71 20
2004-05-05 09:18:52 51°30.434 2°50.803 70.1 12.3 72 22.3
2004-05-05 09:19:52 51°30.509 2°51.109 68.9 13 64 21.1
2004-05-05 09:20:52 51°30.524 2°51.442 95.7 12.5 98 20.2
2004-05-05 09:21:52 51°30.46 2°51.773 113.9 13.1 116 20.1
2004-05-05 09:22:51 51°30.351 2°52.071 120.7 13.1 121 25.6
2004-05-05 09:23:52 51°30.194 2°52.329 143.1 13.6 142 29.1
2004-05-05 09:24:52 51°30.005 2°52.514 148.1 13.5 150 29.1
2004-05-05 09:25:52 51°29.816 2°52.702 146.2 13.3 145 29.5
2004-05-05 09:26:52 51°29.669 2°52.936 118.3 12.1 112 32.1
2004-05-05 09:27:52 51°29.674 2°53.254 81.2 12.2 80 32.4
2004-05-05 09:28:52 51°29.743 2°53.567 72.2 12.5 66 31.6
2004-05-05 09:29:52 51°29.821 2°53.871 72.5 12 67 31.5
2004-05-05 09:30:52 51°29.892 2°54.177 74.7 12.5 70 32
2004-05-05 09:31:52 51°29.96 2°54.483 72.8 12.2 69 32.9
2004-05-05 09:32:52 51°30.029 2°54.789 73.8 12 69 33.8
2004-05-05 09:33:52 51°30.102 2°55.098 74.6 12.3 69 32.2
2004-05-05 09:34:52 51°30.175 2°55.407 73.3 12.4 68 31.7
2004-05-05 09:35:52 51°30.296 2°55.664 50.8 12.2 47 31.8
2004-05-05 09:36:52 51°30.467 2°55.846 31.1 12.5 25 32.5
2004-05-05 09:37:52 51°30.666 2°55.936 29.4 13 19 34.2
2004-05-05 09:38:52 51°30.872 2°56.036 27.8 12.7 21 35.2
2004-05-05 09:39:52 51°31.077 2°56.133 31.7 12.6 23 34.5
2004-05-05 09:40:52 51°31.272 2°56.261 32.5 12.5 24 26.6
2004-05-05 09:41:52 51°31.467 2°56.373 24.5 12.7 13 17.2
2004-05-05 09:42:52 51°31.662 2°56.473 22.1 12.3 17 17
2004-05-05 09:43:52 51°31.866 2°56.577 24.2 13.2 19 17.8
2004-05-05 09:44:52 51°32.061 2°56.69 25.3 12.3 21 19.9
2004-05-05 09:45:52 51°32.252 2°56.827 32.8 13.3 25 20
2004-05-05 09:46:52 51°32.442 2°56.973 30.8 12.6 31 17.2
2004-05-05 09:47:52 51°32.62 2°57.144 35.6 12.7 33 18.5
2004-05-05 09:48:52 51°32.798 2°57.322 37.3 12.3 32 22
2004-05-05 09:49:52 51°32.961 2°57.537 43.1 13.2 38 21
2004-05-05 09:50:52 51°33.113 2°57.78 52.9 13 51 20
2004-05-05 09:51:52 51°33.245 2°58.029 51.5 12.9 50 20.3
2004-05-05 09:52:52 51°33.386 2°58.279 52.9 12.9 50 17.8
2004-05-05 09:53:52 51°33.513 2°58.548 56.2 12.3 56 19.9
2004-05-05 09:54:52 51°33.63 2°58.825 61 13 59 21.4
2004-05-05 09:55:52 51°33.753 2°59.097 56.4 12.5 55 20.4
2004-05-05 09:56:52 51°33.869 2°59.385 57.3 13 59 20.1
2004-05-05 09:57:52 51°33.991 2°59.662 57.9 12.6 57 18.1
2004-05-05 09:58:52 51°34.107 2°59.941 58.8 12.8 60 18.3
2004-05-05 09:59:52 51°34.229 3°0.215 55 12.7 55 17.5
2004-05-05 10:00:52 51°34.35 3°0.485 55.3 13.1 55 14.7
2004-05-05 10:01:52 51°34.467 3°0.755 58.7 12.7 60 16.9
2004-05-05 10:02:52 51°34.582 3°1.039 59.2 12.5 59 16.7
2004-05-05 10:03:52 51°34.564 3°1.372 113.3 13.1 115 16.7
2004-05-05 10:04:52 51°34.382 3°1.598 151.6 14.3 152 17.6
2004-05-05 10:05:52 51°34.15 3°1.578 198.3 14.4 195 18.4
2004-05-05 10:06:52 51°33.925 3°1.453 203.2 14.3 201 25
2004-05-05 10:07:50 51°33.708 3°1.321 203.9 14.4 201 34.5
2004-05-05 10:08:52 51°33.48 3°1.178 203.7 14.2 201 34.8
2004-05-05 10:09:52 51°33.264 3°1.04 204.4 13.9 202 34.5
2004-05-05 10:10:52 51°33.047 3°0.903 204.1 14.1 202 33.8
2004-05-05 10:11:52 51°32.828 3°0.766 203.8 14.2 201 33
2004-05-05 10:12:52 51°32.605 3°0.625 204.1 14.3 201 31
2004-05-05 10:13:50 51°32.393 3°0.488 204.5 14.4 202 28.2
2004-05-05 10:14:52 51°32.166 3°0.346 204.5 14 201 27.5
2004-05-05 10:15:52 51°31.946 3°0.209 203.9 14.1 200 25.2
2004-05-05 10:16:52 51°31.727 3°0.074 204.6 14.1 201 27
2004-05-05 10:17:52 51°31.509 2°59.938 204.4 13.8 201 28
2004-05-05 10:18:52 51°31.293 2°59.804 204.3 14 201 28.3
2004-05-05 10:19:52 51°31.077 2°59.672 203.4 13.7 200 28.6
2004-05-05 10:20:52 51°30.861 2°59.552 202.5 13.7 199 28.2
2004-05-05 10:21:52 51°30.649 2°59.432 202.3 13.7 200 27.9
2004-05-05 10:22:50 51°30.44 2°59.314 201.7 13.7 199 26.1
2004-05-05 10:23:52 51°30.217 2°59.192 202.6 13.9 199 26.8
2004-05-05 10:24:52 51°30.003 2°59.074 201.7 13.3 197 26.5
2004-05-05 10:25:52 51°29.791 2°58.954 202.4 13.5 199 27.3
2004-05-05 10:26:52 51°29.578 2°58.833 202.4 13.5 200 26.5
2004-05-05 10:27:52 51°29.366 2°58.711 202.6 13.5 200 27.2
2004-05-05 10:28:52 51°29.155 2°58.588 202.4 13.4 200 28.5
2004-05-05 10:29:52 51°28.944 2°58.463 202.3 13.6 200 29.2
2004-05-05 10:30:52 51°28.734 2°58.34 202.1 13.5 200 31.3
2004-05-05 10:31:52 51°28.521 2°58.213 202.2 13.7 201 32.2
2004-05-05 10:32:52 51°28.31 2°58.088 201.9 13.4 201 31.7
2004-05-05 10:33:52 51°28.098 2°57.964 202.3 13.7 198 29.7
2004-05-05 10:34:52 51°27.888 2°57.846 202.4 13.5 200 28.9
2004-05-05 10:35:52 51°27.675 2°57.723 202.7 13.6 200 27.8
2004-05-05 10:36:52 51°27.463 2°57.597 202.6 13.7 199 26.5
2004-05-05 10:37:52 51°27.249 2°57.474 203.1 13.5 199 25
2004-05-05 10:38:52 51°27.036 2°57.351 203.4 13.6 200 22.6
2004-05-05 10:39:52 51°26.822 2°57.233 203.3 13.6 199 18.8
2004-05-05 10:40:52 51°26.607 2°57.117 203 13.6 198 17.9
2004-05-05 10:41:52 51°26.393 2°57.003 203.4 13.6 198 16.9
2004-05-05 10:42:52 51°26.178 2°56.894 203.2 13.4 197 17.5
2004-05-05 10:43:52 51°25.966 2°56.785 203.9 13.5 198 18.6
2004-05-05 10:44:52 51°25.753 2°56.678 202.6 13.5 198 16.7
2004-05-05 10:45:52 51°25.541 2°56.567 204.5 13.2 199 21.1
2004-05-05 10:46:52 51°25.332 2°56.451 204 13.2 199 24.2
2004-05-05 10:47:52 51°25.125 2°56.338 204.4 13.2 200 26.3
2004-05-05 10:48:52 51°24.92 2°56.224 204.2 13 198 26.6
2004-05-05 10:49:52 51°24.718 2°56.112 204.5 12.7 200 25.1
2004-05-05 10:50:52 51°24.509 2°56.042 189 13.1 184 24.3
2004-05-05 10:51:52 51°24.292 2°56.018 189.3 13.2 184 24.7
2004-05-05 10:52:52 51°24.074 2°55.992 189.9 13 185 21.6
2004-05-05 10:53:52 51°23.855 2°55.967 189.8 13.3 184 19.2
2004-05-05 10:54:52 51°23.64 2°55.904 202.8 13.1 197 18.7
2004-05-05 10:55:52 51°23.433 2°55.792 206.3 13 201 20.6
2004-05-05 10:56:52 51°23.231 2°55.67 205.7 12.8 201 21.6
2004-05-05 10:57:52 51°23.03 2°55.552 206 12.9 200 21.2
2004-05-05 10:58:52 51°22.829 2°55.436 206.6 12.8 199 20.9
2004-05-05 10:59:52 51°22.627 2°55.323 205.3 12.8 201 20.6
2004-05-05 11:00:52 51°22.427 2°55.211 205 12.7 198 20.3
2004-05-05 11:01:52 51°22.228 2°55.102 205.9 12.6 200 20.9
2004-05-05 11:02:52 51°22.031 2°54.993 206.1 12.5 201 20.3
2004-05-05 11:03:52 51°21.834 2°54.886 204.8 12.3 199 19.7
2004-05-05 11:04:52 51°21.638 2°54.782 202.7 12.4 197 19.4
2004-05-05 11:05:52 51°21.438 2°54.695 202.3 12.5 195 19.4
2004-05-05 11:06:52 51°21.245 2°54.589 209.7 12.2 203 19.4
2004-05-05 11:07:52 51°21.06 2°54.461 209 12.2 204 19.1
2004-05-05 11:08:52 51°20.872 2°54.334 210 12.3 204 19.2
2004-05-05 11:09:52 51°20.685 2°54.211 209.4 11.9 202 19
2004-05-05 11:10:52 51°20.5 2°54.082 209.4 12.2 203 18.7
2004-05-05 11:11:52 51°20.314 2°53.959 209.3 12.2 203 18.4
2004-05-05 11:12:52 51°20.129 2°53.832 209.4 12 203 17.7
2004-05-05 11:13:52 51°19.943 2°53.705 209.9 12.1 204 17.5
2004-05-05 11:14:52 51°19.757 2°53.579 209.2 12.1 203 16.7
2004-05-05 11:15:52 51°19.57 2°53.453 209.2 12.2 203 16.2
2004-05-05 11:16:52 51°19.382 2°53.327 209.5 12.2 202 15.8
2004-05-05 11:17:52 51°19.195 2°53.202 209.3 12.3 203 15.4
2004-05-05 11:18:52 51°19.008 2°53.079 209 12.2 202 15
2004-05-05 11:19:52 51°18.822 2°52.958 209 12 202 14.7
2004-05-05 11:20:52 51°18.636 2°52.845 205.2 12 198 14.5
2004-05-05 11:21:52 51°18.442 2°52.757 203.5 12.1 195 14.2
2004-05-05 11:22:52 51°18.25 2°52.668 203.9 12 195 13.9
2004-05-05 11:23:52 51°18.059 2°52.578 203.9 12 196 13.6
2004-05-05 11:24:52 51°17.862 2°52.508 199.1 12.1 191 13.4
2004-05-05 11:25:52 51°17.666 2°52.448 199 11.9 191 13.1
2004-05-05 11:26:52 51°17.47 2°52.388 199.5 11.9 191 13.4
2004-05-05 11:27:52 51°17.27 2°52.349 192.3 12.1 183 13.2
2004-05-05 11:28:52 51°17.069 2°52.449 170.1 12.9 160 12.7
2004-05-05 11:29:52 51°16.874 2°52.588 162.5 12.8 143 12.8
2004-05-05 11:30:52 51°16.779 2°52.892 148.4 12.6 139 13
2004-05-05 11:31:52 51°16.661 2°52.77 262.8 10.5 268 14.2
2004-05-05 11:32:52 51°16.832 2°52.622 348.6 12.3 352 12.8
2004-05-05 11:33:52 51°16.999 2°52.7 34.6 9.7 34 13.1
2004-05-05 11:34:52 51°17.046 2°52.789 93.5 2.3 40 13.3
2004-05-05 11:35:52 51°17.074 2°52.828 77.6 2.3 42 13.3
2004-05-05 11:36:52 51°17.104 2°52.873 68.4 2.6 43 13.2
2004-05-05 11:37:52 51°17.136 2°52.923 69.2 2.7 45 12.8
2004-05-05 11:38:52 51°17.169 2°52.976 73.4 2.8 48 13.1
2004-05-05 11:39:52 51°17.199 2°53.033 85.7 2.8 51 12.6
2004-05-05 11:40:52 51°17.229 2°53.091 89 2.8 52 12.6
2004-05-05 11:41:52 51°17.257 2°53.149 93.2 2.7 54 12.6
2004-05-05 11:42:54 51°17.285 2°53.208 97.6 2.6 54 12.3
2004-05-05 11:43:54 51°17.313 2°53.264 98 2.6 56 12.4
2004-05-05 11:44:54 51°17.339 2°53.32 100.2 2.7 52 12.7
2004-05-05 11:45:54 51°17.367 2°53.376 97.2 2.7 51 12.7
2004-05-05 11:46:54 51°17.395 2°53.43 97 2.7 50 12.6
2004-05-05 11:47:54 51°17.423 2°53.484 96.9 2.7 50 12.5
2004-05-05 11:48:54 51°17.451 2°53.54 99.4 2.7 51 12.6
2004-05-05 11:49:54 51°17.48 2°53.596 100.5 2.6 52 12.6
2004-05-05 11:50:54 51°17.491 2°53.704 127.1 5.6 104 12.1
2004-05-05 11:51:54 51°17.412 2°53.794 178.4 8.5 163 12
2004-05-05 11:52:54 51°17.228 2°53.873 177 12.1 170 11.1
2004-05-05 11:53:53 51°17.031 2°53.943 179.2 12.5 168 12.9
2004-05-05 11:54:54 51°16.824 2°54.012 180 12.5 167 14.6
2004-05-05 11:55:54 51°16.624 2°54.057 185.6 12.1 172 15.1
2004-05-05 11:56:52 51°16.43 2°54.091 187.4 12 175 15.1
2004-05-05 11:57:54 51°16.224 2°54.117 187.3 12 176 14.9
2004-05-05 11:58:54 51°16.022 2°54.143 187.2 12.2 176 14.4
2004-05-05 11:59:54 51°15.821 2°54.168 187.2 12 175 14.1
2004-05-05 12:00:55 51°15.617 2°54.219 182.4 12.1 170 13.5
2004-05-05 12:01:54 51°15.42 2°54.283 178.2 12.3 165 12.8
2004-05-05 12:02:54 51°15.22 2°54.365 175.1 12.5 165 12.2
2004-05-05 12:03:53 51°15.026 2°54.455 172 12.5 161 11.7
2004-05-05 12:04:54 51°14.832 2°54.605 168.5 12.7 155 12.7
2004-05-05 12:05:54 51°14.641 2°54.759 163.2 13 150 12.8
2004-05-05 12:06:53 51°14.462 2°54.945 159.8 13 144 13.3
2004-05-05 12:07:54 51°14.302 2°55.173 134.2 11.8 129 14.3
2004-05-05 12:08:53 51°14.19 2°55.37 146.6 8.8 143 14.1
2004-05-05 12:09:53 51°14.072 2°55.473 157.9 7.8 154 14.1
2004-05-05 12:10:54 51°13.952 2°55.555 161.3 7.7 157 14
2004-05-05 12:11:54 51°13.841 2°55.633 159.6 7.3 155 13
2004-05-05 12:12:54 51°13.74 2°55.731 148.1 6.6 143 12.7
2004-05-05 12:13:53 51°13.68 2°55.837 129.2 4.9 124 12.9
2004-05-05 12:14:54 51°13.64 2°55.946 122.5 5 116 13
2004-05-05 12:15:54 51°13.608 2°56.053 122.2 4 115 12.8